createdAt,value
2022-10-06T08:17:10.370Z,19.29
2022-10-06T08:19:37.010Z,19.49
2022-10-06T08:22:04.969Z,19.63
2022-10-06T08:24:54.149Z,19.74
2022-10-06T08:27:18.463Z,19.87
2022-10-06T08:29:45.309Z,20.05
2022-10-06T08:32:13.278Z,20.18
2022-10-06T08:34:39.930Z,20.37
2022-10-06T08:37:19.860Z,20.58
2022-10-06T08:39:47.114Z,20.85
2022-10-06T08:42:18.770Z,21.13
2022-10-06T08:44:49.017Z,21.41
2022-10-06T08:47:20.094Z,21.64
2022-10-06T08:49:48.913Z,21.83
2022-10-06T08:52:24.013Z,21.98
2022-10-06T08:54:58.529Z,22.13
2022-10-06T08:58:01.322Z,22.29
2022-10-06T09:10:06.514Z,22.75
2022-10-06T09:12:41.806Z,22.92
2022-10-06T09:15:30.329Z,23.07
2022-10-06T09:18:02.269Z,23.20
2022-10-06T09:23:50.251Z,23.69
2022-10-06T09:26:22.661Z,23.94
2022-10-06T09:28:51.795Z,24.09
2022-10-06T09:31:21.727Z,24.12
2022-10-06T09:33:51.777Z,24.07
2022-10-06T09:36:19.036Z,24.07
2022-10-06T09:38:48.358Z,24.05
2022-10-06T09:41:17.170Z,24.07
2022-10-06T09:44:04.913Z,24.07
2022-10-06T09:46:34.410Z,24.13
2022-10-06T09:49:18.704Z,24.20
2022-10-06T09:52:01.236Z,24.10
2022-10-06T09:54:29.131Z,24.03
2022-10-06T09:56:58.250Z,23.91
2022-10-06T09:59:37.669Z,24.03
2022-10-06T10:02:28.740Z,24.25
2022-10-06T10:04:57.146Z,24.40
2022-10-06T10:07:26.555Z,24.45
2022-10-06T10:09:54.986Z,24.46
2022-10-06T10:12:25.094Z,24.51
2022-10-06T10:14:56.506Z,24.63
2022-10-06T10:17:37.613Z,24.60
2022-10-06T10:23:05.968Z,24.76
2022-10-06T10:25:55.715Z,24.79
2022-10-06T10:28:46.888Z,24.92
2022-10-06T10:31:21.342Z,25.03
2022-10-06T10:34:12.103Z,25.10
2022-10-06T10:37:12.597Z,25.12
2022-10-06T10:39:44.054Z,25.19
2022-10-06T10:42:18.137Z,25.34
2022-10-06T10:44:52.174Z,25.46
2022-10-06T10:47:25.870Z,25.48
2022-10-06T10:50:00.427Z,25.52
2022-10-06T10:52:32.036Z,25.52
2022-10-06T10:55:14.296Z,25.51
2022-10-06T10:57:43.985Z,25.33
2022-10-06T11:00:19.554Z,25.13
2022-10-06T11:02:48.209Z,24.99
2022-10-06T11:05:17.280Z,24.88
2022-10-06T11:07:49.737Z,24.65
2022-10-06T11:10:20.814Z,24.46
2022-10-06T11:13:02.574Z,24.52
2022-10-06T11:15:44.835Z,24.47
2022-10-06T11:18:26.235Z,24.31
2022-10-06T11:20:58.240Z,24.36
2022-10-06T11:23:37.792Z,24.40
2022-10-06T11:26:09.889Z,24.32
2022-10-06T11:28:42.702Z,24.22
2022-10-06T11:31:23.135Z,23.99
2022-10-06T11:33:55.309Z,23.62
2022-10-06T11:36:31.679Z,23.24
2022-10-06T11:39:04.894Z,23.18
2022-10-06T11:41:37.965Z,23.30
2022-10-06T11:44:14.690Z,23.32
2022-10-06T11:46:46.126Z,23.30
2022-10-06T11:49:56.369Z,23.45
2022-10-06T11:52:46.961Z,23.67
2022-10-06T11:55:18.281Z,23.79
2022-10-06T11:58:23.339Z,23.85
2022-10-06T12:00:54.669Z,23.81
2022-10-06T12:03:55.095Z,23.86
2022-10-06T12:06:59.502Z,24.02
2022-10-06T12:09:46.283Z,24.05
2022-10-06T12:13:02.076Z,24.10
2022-10-06T12:19:07.427Z,24.04
2022-10-06T12:21:50.762Z,24.20
2022-10-06T12:24:26.920Z,24.19
2022-10-06T12:27:10.775Z,24.14
2022-10-06T12:29:44.605Z,23.92
2022-10-06T12:32:22.827Z,23.92
2022-10-06T12:35:16.597Z,23.95
2022-10-06T12:37:47.981Z,23.94
2022-10-06T12:40:43.731Z,24.03
2022-10-06T12:43:53.785Z,24.06
2022-10-06T12:46:37.673Z,24.05
2022-10-06T12:49:36.903Z,24.05
2022-10-06T12:52:14.105Z,23.97
2022-10-06T12:54:53.469Z,23.85
2022-10-06T12:57:20.845Z,23.82
2022-10-06T12:59:50.219Z,23.79
2022-10-06T13:02:19.261Z,23.69
2022-10-06T13:04:50.275Z,23.44
2022-10-06T13:07:19.414Z,23.35
2022-10-06T13:09:47.959Z,23.25
2022-10-06T13:12:26.449Z,23.15
2022-10-06T13:15:19.808Z,22.98
2022-10-06T13:17:51.141Z,22.83
2022-10-06T13:20:25.865Z,22.72
2022-10-06T13:22:58.494Z,22.54
2022-10-06T13:25:27.141Z,22.48
2022-10-06T13:27:54.003Z,22.52
2022-10-06T13:30:23.034Z,22.70
2022-10-06T13:32:53.211Z,22.85
2022-10-06T13:35:23.362Z,22.98
2022-10-06T13:37:51.105Z,23.07
2022-10-06T13:40:45.715Z,23.08
2022-10-06T13:43:18.663Z,23.08
2022-10-06T13:45:48.409Z,22.99
2022-10-06T13:48:19.261Z,22.88
2022-10-06T13:50:47.615Z,22.74
2022-10-06T13:53:27.419Z,22.67
2022-10-06T13:55:54.636Z,22.68
2022-10-06T13:58:25.135Z,22.70
2022-10-06T14:00:56.417Z,22.67
2022-10-06T14:03:28.890Z,22.66
2022-10-06T14:06:09.070Z,22.68
2022-10-06T14:08:37.215Z,22.68
2022-10-06T14:11:07.099Z,22.71
2022-10-06T14:13:41.417Z,22.76
2022-10-06T14:16:18.170Z,22.72
2022-10-06T14:21:32.565Z,22.63
2022-10-06T14:23:59.783Z,22.61
2022-10-06T14:26:28.696Z,22.61
2022-10-06T14:28:56.586Z,22.63
2022-10-06T14:31:27.140Z,22.64
2022-10-06T14:33:55.614Z,22.62
2022-10-06T14:36:25.757Z,22.49
2022-10-06T14:38:53.393Z,22.39
2022-10-06T14:41:27.453Z,22.28
2022-10-06T14:43:54.863Z,22.19
2022-10-06T14:46:22.168Z,22.19
2022-10-06T14:48:51.331Z,22.14
2022-10-06T14:51:18.555Z,22.10
2022-10-06T14:53:54.038Z,22.10
2022-10-06T14:56:22.721Z,22.06
2022-10-06T14:58:50.833Z,22.04
2022-10-06T15:01:20.116Z,22.00
2022-10-06T15:03:52.933Z,21.93
2022-10-06T15:06:39.297Z,21.85
2022-10-06T15:09:06.502Z,21.77
2022-10-06T15:11:34.562Z,21.73
2022-10-06T15:14:03.304Z,21.65
2022-10-06T15:16:32.223Z,21.61
2022-10-06T15:19:09.111Z,21.56
2022-10-06T15:21:41.474Z,21.51
2022-10-06T15:24:13.303Z,21.47
2022-10-06T15:26:59.200Z,21.39
2022-10-06T15:29:27.376Z,21.36
2022-10-06T15:31:55.224Z,21.34
2022-10-06T15:34:29.266Z,21.34
2022-10-06T15:36:57.731Z,21.31
2022-10-06T15:39:25.875Z,21.23
2022-10-06T15:41:53.120Z,21.19
2022-10-06T15:44:20.495Z,21.14
2022-10-06T15:46:51.644Z,21.10
2022-10-06T15:49:22.219Z,21.06
2022-10-06T15:51:51.793Z,21.07
2022-10-06T15:54:20.462Z,21.10
2022-10-06T15:56:48.800Z,21.06
2022-10-06T15:59:16.185Z,21.04
2022-10-06T16:01:50.348Z,21.03
2022-10-06T16:04:35.875Z,21.04
2022-10-06T16:07:05.159Z,21.04
2022-10-06T16:09:37.012Z,21.03
2022-10-06T16:12:07.956Z,21.04
2022-10-06T16:14:35.465Z,21.04
2022-10-06T16:17:03.719Z,21.02
2022-10-06T16:19:31.889Z,21.00
2022-10-06T16:21:59.476Z,20.94
2022-10-06T16:24:28.186Z,20.91
2022-10-06T16:26:56.305Z,20.80
2022-10-06T16:29:22.947Z,20.73
2022-10-06T16:31:49.963Z,20.70
2022-10-06T16:34:16.832Z,20.65
2022-10-06T16:36:43.833Z,20.60
2022-10-06T16:39:13.794Z,20.56
2022-10-06T16:41:42.823Z,20.54
2022-10-06T16:44:09.709Z,20.53
2022-10-06T16:46:36.706Z,20.52
2022-10-06T16:49:04.350Z,20.50
2022-10-06T16:51:32.712Z,20.48
2022-10-06T16:54:01.573Z,20.45
2022-10-06T16:56:30.843Z,20.44
2022-10-06T16:59:01.025Z,20.44
2022-10-06T17:01:29.286Z,20.43
2022-10-06T17:04:00.576Z,20.41
2022-10-06T17:06:27.460Z,20.37
2022-10-06T17:08:54.234Z,20.34
2022-10-06T17:11:23.638Z,20.29
2022-10-06T17:13:52.871Z,20.25
2022-10-06T17:16:22.995Z,20.25
2022-10-06T17:18:51.110Z,20.20
2022-10-06T17:21:43.402Z,20.15
2022-10-06T17:24:06.166Z,20.08
2022-10-06T17:26:35.236Z,20.06
2022-10-06T17:29:05.710Z,20.04
2022-10-06T17:31:37.590Z,20.03
2022-10-06T17:34:09.259Z,20.00
2022-10-06T17:36:38.066Z,19.95
2022-10-06T17:39:05.586Z,19.87
2022-10-06T17:41:35.335Z,19.85
2022-10-06T17:44:04.178Z,19.85
2022-10-06T17:46:31.797Z,19.79
2022-10-06T17:49:03.277Z,19.77
2022-10-06T17:51:33.396Z,19.77
2022-10-06T17:54:04.071Z,19.77
2022-10-06T17:56:37.062Z,19.77
2022-10-06T17:59:06.334Z,19.77
2022-10-06T18:01:35.749Z,19.77
2022-10-06T18:04:05.888Z,19.77
2022-10-06T18:06:35.108Z,19.73
2022-10-06T18:09:02.916Z,19.71
2022-10-06T18:11:35.799Z,19.70
2022-10-06T18:14:05.179Z,19.70
2022-10-06T18:16:39.131Z,19.68
2022-10-06T18:19:09.808Z,19.65
2022-10-06T18:21:39.142Z,19.63
2022-10-06T18:24:08.081Z,19.59
2022-10-06T18:26:38.358Z,19.57
2022-10-06T18:29:07.000Z,19.55
2022-10-06T18:31:34.720Z,19.50
2022-10-06T18:36:51.765Z,19.46
2022-10-06T18:39:18.676Z,19.44
2022-10-06T18:41:47.074Z,19.42
2022-10-06T18:44:14.658Z,19.42
2022-10-06T18:47:00.249Z,19.41
2022-10-06T18:49:27.061Z,19.40
2022-10-06T18:51:58.491Z,19.39
2022-10-06T18:54:29.153Z,19.37
2022-10-06T18:56:57.066Z,19.36
2022-10-06T18:59:31.360Z,19.34
2022-10-06T19:02:04.015Z,19.31
2022-10-06T19:04:35.086Z,19.29
2022-10-06T19:07:03.617Z,19.27
2022-10-06T19:09:30.752Z,19.23
2022-10-06T19:11:58.357Z,19.20
2022-10-06T19:14:26.612Z,19.18
2022-10-06T19:16:56.631Z,19.15
2022-10-06T19:19:26.539Z,19.14
2022-10-06T19:21:59.690Z,19.12
2022-10-06T19:24:30.957Z,19.07
2022-10-06T19:26:59.828Z,19.01
2022-10-06T19:29:26.981Z,19.00
2022-10-06T19:31:58.055Z,18.98
2022-10-06T19:34:25.586Z,18.91
2022-10-06T19:36:58.314Z,18.89
2022-10-06T19:39:30.385Z,18.86
2022-10-06T19:42:17.362Z,18.84
2022-10-06T19:44:44.412Z,18.81
2022-10-06T19:47:13.117Z,18.75
2022-10-06T19:49:40.660Z,18.68
2022-10-06T19:52:08.710Z,18.64
2022-10-06T19:54:37.136Z,18.55
2022-10-06T19:57:05.643Z,18.46
2022-10-06T19:59:33.158Z,18.39
2022-10-06T20:02:01.146Z,18.35
2022-10-06T20:04:27.889Z,18.30
2022-10-06T20:06:54.832Z,18.27
2022-10-06T20:09:23.058Z,18.24
2022-10-06T20:11:51.388Z,18.19
2022-10-06T20:14:21.194Z,18.12
2022-10-06T20:16:50.575Z,18.04
2022-10-06T20:19:18.451Z,17.97
2022-10-06T20:21:45.870Z,17.92
2022-10-06T20:24:14.597Z,17.86
2022-10-06T20:26:43.217Z,17.81
2022-10-06T20:29:13.394Z,17.73
2022-10-06T20:31:42.641Z,17.66
2022-10-06T20:34:12.203Z,17.59
2022-10-06T20:36:39.596Z,17.51
2022-10-06T20:39:26.502Z,17.43
2022-10-06T20:41:55.432Z,17.40
2022-10-06T20:44:23.638Z,17.41
2022-10-06T20:46:51.400Z,17.41
2022-10-06T20:49:18.525Z,17.36
2022-10-06T20:51:50.037Z,17.31
2022-10-06T20:54:18.185Z,17.26
2022-10-06T20:56:48.816Z,17.26
2022-10-06T20:59:16.192Z,17.22
2022-10-06T21:01:45.246Z,17.18
2022-10-06T21:04:12.924Z,17.13
2022-10-06T21:06:40.448Z,17.07
2022-10-06T21:09:09.251Z,16.96
2022-10-06T21:11:36.351Z,16.80
2022-10-06T21:14:03.967Z,16.72
2022-10-06T21:16:33.083Z,16.65
2022-10-06T21:19:02.568Z,16.60
2022-10-06T21:21:29.665Z,16.56
2022-10-06T21:23:56.698Z,16.56
2022-10-06T21:26:26.183Z,16.57
2022-10-06T21:28:53.506Z,16.54
2022-10-06T21:31:23.406Z,16.51
2022-10-06T21:33:51.471Z,16.48
2022-10-06T21:36:21.582Z,16.45
2022-10-06T21:38:49.909Z,16.42
2022-10-06T21:41:37.828Z,16.37
2022-10-06T21:44:06.199Z,16.30
2022-10-06T21:46:35.045Z,16.23
2022-10-06T21:49:03.176Z,16.20
2022-10-06T21:51:32.089Z,16.17
2022-10-06T21:54:00.463Z,16.13
2022-10-06T21:56:30.846Z,16.08
2022-10-06T21:58:58.983Z,16.06
2022-10-06T22:01:27.563Z,16.05
2022-10-06T22:03:56.082Z,15.98
2022-10-06T22:06:23.307Z,15.90
2022-10-06T22:08:51.524Z,15.85
2022-10-06T22:11:21.110Z,15.80
2022-10-06T22:13:49.550Z,15.76
2022-10-06T22:16:19.344Z,15.69
2022-10-06T22:18:47.020Z,15.65
2022-10-06T22:21:15.799Z,15.62
2022-10-06T22:23:43.826Z,15.57
2022-10-06T22:26:13.391Z,15.52
2022-10-06T22:28:44.686Z,15.45
2022-10-06T22:31:12.391Z,15.38
2022-10-06T22:33:40.156Z,15.31
2022-10-06T22:36:07.956Z,15.27
2022-10-06T22:38:35.488Z,15.26
2022-10-06T22:41:04.204Z,15.22
2022-10-06T22:43:33.540Z,15.18
2022-10-06T22:46:01.006Z,15.14
2022-10-06T22:48:28.270Z,15.11
2022-10-06T22:50:55.136Z,15.09
2022-10-06T22:53:23.907Z,15.06
2022-10-06T22:55:51.724Z,15.01
2022-10-06T22:58:19.075Z,14.93
2022-10-06T23:00:48.465Z,14.90
2022-10-06T23:03:16.935Z,14.87
2022-10-06T23:05:53.752Z,14.84
2022-10-06T23:08:20.552Z,14.79
2022-10-06T23:10:47.664Z,14.70
2022-10-06T23:13:14.484Z,14.61
2022-10-06T23:15:41.503Z,14.57
2022-10-06T23:18:10.080Z,14.54
2022-10-06T23:20:37.795Z,14.54
2022-10-06T23:23:04.721Z,14.47
2022-10-06T23:25:31.562Z,14.39
2022-10-06T23:27:58.457Z,14.33
2022-10-06T23:30:25.356Z,14.31
2022-10-06T23:32:52.512Z,14.29
2022-10-06T23:35:20.805Z,14.27
2022-10-06T23:37:47.792Z,14.25
2022-10-06T23:40:14.752Z,14.24
2022-10-06T23:42:41.548Z,14.22
2022-10-06T23:45:09.312Z,14.19
2022-10-06T23:47:36.132Z,14.18
2022-10-06T23:50:03.028Z,14.19
2022-10-06T23:52:31.449Z,14.21
2022-10-06T23:54:58.680Z,14.24
2022-10-06T23:57:25.520Z,14.23
2022-10-06T23:59:52.315Z,14.23
